Time;durP1;ratioP1;P1;durP2;ratioP2;P2;SDS_P1;SDS_P2;PMS_P1;PMS_P2;Temp;Humidity;BMP_temperature;BMP_pressure;BME280_temperature;BME280_humidity;BME280_pressure;Samples;Min_cycle;Max_cycle;Signal;HPM_P1;HPM_P2
2022/03/18 00:00:54;;;;;;;65.28;40.75;;;8.70;99.90;;;;;;2064281;28;20038;-67
2022/03/18 00:01:54;;;;;;;63.22;39.97;;;8.70;99.90;;;;;;2071714;28;20034;-69
2022/03/18 00:02:55;;;;;;;61.55;38.92;;;8.70;99.90;;;;;;2063805;28;20039;-69
2022/03/18 00:03:55;;;;;;;60.08;37.72;;;8.60;99.90;;;;;;2063203;28;20034;-69
2022/03/18 00:04:56;;;;;;;58.05;37.42;;;8.70;99.90;;;;;;2072159;28;20098;-69
2022/03/18 00:05:57;;;;;;;57.72;37.92;;;8.70;99.90;;;;;;2071818;28;20516;-69
2022/03/18 00:06:57;;;;;;;58.85;37.35;;;8.70;99.90;;;;;;2072294;28;20037;-66
2022/03/18 00:07:59;;;;;;;60.15;37.50;;;8.70;99.90;;;;;;2071230;28;20522;-67
2022/03/18 00:09:00;;;;;;;56.58;36.00;;;8.70;99.90;;;;;;2072828;28;20045;-68
2022/03/18 00:10:00;;;;;;;58.20;35.75;;;8.70;99.90;;;;;;2070430;28;20018;-68
2022/03/18 00:11:02;;;;;;;57.35;35.78;;;8.70;99.90;;;;;;2071581;28;20028;-68
2022/03/18 00:12:03;;;;;;;54.13;34.78;;;8.70;99.90;;;;;;2062848;28;20046;-68
2022/03/18 00:13:04;;;;;;;58.10;35.78;;;8.70;99.90;;;;;;2063611;28;20027;-68
2022/03/18 00:14:05;;;;;;;53.58;34.90;;;8.60;99.90;;;;;;2072348;28;20034;-67
2022/03/18 00:15:07;;;;;;;54.75;34.65;;;8.60;99.90;;;;;;2071728;28;20030;-69
2022/03/18 00:16:08;;;;;;;53.25;33.83;;;8.70;99.90;;;;;;2081931;27;20021;-67
2022/03/18 00:17:10;;;;;;;52.97;33.13;;;8.70;99.90;;;;;;2072408;28;20064;-69
2022/03/18 00:18:11;;;;;;;52.70;33.97;;;8.70;99.90;;;;;;2071818;28;20033;-67
2022/03/18 00:19:12;;;;;;;51.25;32.33;;;8.70;99.90;;;;;;2071667;28;20040;-68
2022/03/18 00:20:13;;;;;;;52.83;33.33;;;8.70;99.90;;;;;;2070647;28;20426;-68
2022/03/18 00:21:14;;;;;;;50.33;32.67;;;8.70;99.90;;;;;;2063779;28;20069;-68
2022/03/18 00:22:16;;;;;;;50.15;31.90;;;8.70;99.90;;;;;;2070974;28;20048;-69
2022/03/18 00:23:16;;;;;;;53.30;32.58;;;8.70;99.90;;;;;;2072381;28;20082;-69
2022/03/18 00:24:17;;;;;;;49.67;32.38;;;8.70;99.90;;;;;;2071056;28;20135;-69
2022/03/18 00:25:19;;;;;;;50.35;31.92;;;8.70;99.90;;;;;;2071854;28;20425;-69
2022/03/18 00:26:20;;;;;;;45.50;29.88;;;8.60;99.90;;;;;;2070995;28;20033;-69
2022/03/18 00:27:21;;;;;;;46.95;30.38;;;8.60;99.90;;;;;;2063530;28;20114;-69
2022/03/18 00:28:21;;;;;;;46.53;29.83;;;8.60;99.90;;;;;;2062070;28;20537;-69
2022/03/18 00:29:22;;;;;;;48.47;30.25;;;8.60;99.90;;;;;;2063552;28;20033;-69
2022/03/18 00:30:22;;;;;;;49.00;29.55;;;8.60;99.90;;;;;;2071190;28;20280;-69
2022/03/18 00:31:23;;;;;;;50.33;30.73;;;8.60;99.90;;;;;;2069736;28;20105;-67
2022/03/18 00:32:24;;;;;;;46.47;29.65;;;8.60;99.90;;;;;;2054082;28;20081;-69
2022/03/18 00:33:25;;;;;;;45.70;29.83;;;8.60;99.90;;;;;;2062443;28;20033;-68
2022/03/18 00:34:26;;;;;;;46.80;29.13;;;8.60;99.90;;;;;;2071110;28;20560;-68
2022/03/18 00:35:26;;;;;;;43.38;28.00;;;8.50;99.90;;;;;;2070409;28;20030;-67
2022/03/18 00:36:27;;;;;;;46.67;28.98;;;8.50;99.90;;;;;;2070632;28;20025;-68
2022/03/18 00:37:28;;;;;;;46.75;28.20;;;8.60;99.90;;;;;;2070638;28;20097;-68
2022/03/18 00:38:29;;;;;;;46.50;29.85;;;8.50;99.90;;;;;;2071243;28;20040;-67
2022/03/18 00:39:30;;;;;;;46.67;29.02;;;8.60;99.90;;;;;;2071061;28;20041;-68
2022/03/18 00:40:31;;;;;;;43.92;27.95;;;8.50;99.90;;;;;;2070838;28;20070;-67
2022/03/18 00:41:32;;;;;;;44.47;27.85;;;8.50;99.90;;;;;;2071280;28;20114;-68
2022/03/18 00:42:33;;;;;;;42.90;27.40;;;8.60;99.90;;;;;;2070563;28;20037;-68
2022/03/18 00:43:34;;;;;;;46.03;28.50;;;8.60;99.90;;;;;;2062505;28;20120;-68
2022/03/18 00:44:35;;;;;;;43.47;27.88;;;8.60;99.90;;;;;;2062323;28;20117;-68
2022/03/18 00:45:36;;;;;;;45.30;29.05;;;8.60;99.90;;;;;;2070817;28;20037;-68
2022/03/18 00:46:37;;;;;;;44.83;28.42;;;8.50;99.90;;;;;;2070621;28;20033;-67
2022/03/18 00:52:55;;;;;;;42.47;26.67;;;8.50;99.90;;;;;;2071337;28;20034;-67
2022/03/18 00:53:56;;;;;;;42.72;26.20;;;8.50;99.90;;;;;;2070995;28;20090;-68
2022/03/18 00:54:56;;;;;;;43.67;26.67;;;8.50;99.90;;;;;;2063078;28;20038;-68
2022/03/18 00:55:57;;;;;;;48.67;27.73;;;8.50;99.90;;;;;;2047058;28;20038;-67
2022/03/18 00:56:58;;;;;;;44.08;27.83;;;8.50;99.90;;;;;;2054722;28;20478;-68
2022/03/18 00:57:59;;;;;;;43.47;27.23;;;8.40;99.90;;;;;;2071478;28;20062;-68
2022/03/18 00:58:59;;;;;;;42.28;25.60;;;8.40;99.90;;;;;;2072065;28;20764;-68
2022/03/18 01:00:00;;;;;;;44.72;27.58;;;8.40;99.90;;;;;;2071706;28;20085;-68
2022/03/18 01:01:01;;;;;;;43.45;26.48;;;8.40;99.90;;;;;;2071709;28;20041;-68
2022/03/18 01:02:02;;;;;;;43.13;25.70;;;8.40;99.90;;;;;;2070984;28;20037;-67
2022/03/18 01:03:05;;;;;;;40.85;25.60;;;8.40;99.90;;;;;;2070623;28;20657;-67
2022/03/18 01:04:05;;;;;;;43.42;25.58;;;8.40;99.90;;;;;;2071366;28;20124;-68
2022/03/18 01:05:07;;;;;;;43.22;26.25;;;8.40;99.90;;;;;;2071311;28;20124;-67
2022/03/18 01:06:08;;;;;;;39.97;25.70;;;8.40;99.90;;;;;;2071385;28;20489;-67
2022/03/18 01:07:08;;;;;;;41.75;25.40;;;8.40;99.90;;;;;;2071066;28;20049;-67
2022/03/18 01:08:09;;;;;;;43.80;25.92;;;8.40;99.90;;;;;;2070894;28;20038;-68
2022/03/18 01:09:10;;;;;;;38.28;24.40;;;8.40;99.90;;;;;;2062536;28;20088;-68
2022/03/18 01:10:10;;;;;;;40.28;24.65;;;8.40;99.90;;;;;;2054263;28;20119;-68
2022/03/18 01:11:11;;;;;;;41.72;25.40;;;8.40;99.90;;;;;;2062738;28;20105;-67
2022/03/18 01:12:12;;;;;;;42.10;25.88;;;8.40;99.90;;;;;;2070825;28;20101;-67
2022/03/18 01:13:12;;;;;;;40.47;24.30;;;8.40;99.90;;;;;;2071300;28;20026;-67
2022/03/18 01:14:13;;;;;;;42.88;24.75;;;8.40;99.90;;;;;;2071267;28;20051;-68
2022/03/18 01:15:14;;;;;;;41.80;25.40;;;8.30;99.90;;;;;;2073262;28;20022;-67
2022/03/18 01:16:14;;;;;;;38.13;24.10;;;8.30;99.90;;;;;;2113364;28;20550;-69
2022/03/18 01:17:15;;;;;;;39.38;24.48;;;8.30;99.90;;;;;;2113692;28;20560;-67
2022/03/18 01:18:16;;;;;;;40.53;24.67;;;8.30;99.90;;;;;;2113679;28;20111;-68
2022/03/18 01:19:18;;;;;;;43.80;25.45;;;8.30;99.90;;;;;;2113307;28;20058;-68
2022/03/18 01:20:18;;;;;;;40.15;24.70;;;8.20;99.90;;;;;;2104730;28;20024;-69
2022/03/18 01:21:19;;;;;;;42.45;24.70;;;8.20;99.90;;;;;;2088434;28;20428;-68
2022/03/18 01:22:19;;;;;;;38.30;23.08;;;8.20;99.90;;;;;;2054558;28;20069;-69
2022/03/18 01:23:20;;;;;;;43.53;24.27;;;8.20;99.90;;;;;;2063320;28;20105;-68
2022/03/18 01:24:21;;;;;;;41.38;24.05;;;8.20;99.90;;;;;;2063193;28;20037;-68
2022/03/18 01:25:21;;;;;;;36.65;22.98;;;8.20;99.90;;;;;;2063309;28;20370;-69
2022/03/18 01:26:24;;;;;;;39.78;23.95;;;8.20;99.90;;;;;;2063399;28;20026;-69
2022/03/18 01:27:24;;;;;;;41.55;24.40;;;8.20;99.90;;;;;;2062666;28;20034;-69
2022/03/18 01:28:27;;;;;;;39.33;24.13;;;8.10;99.90;;;;;;2062856;28;20122;-69
2022/03/18 01:29:28;;;;;;;41.13;24.00;;;8.20;99.90;;;;;;2063467;28;20029;-69
2022/03/18 01:30:29;;;;;;;39.58;23.70;;;8.20;99.90;;;;;;2063353;28;20054;-69
2022/03/18 01:31:30;;;;;;;39.25;23.85;;;8.20;99.90;;;;;;2063412;28;20038;-68
2022/03/18 01:32:33;;;;;;;40.17;22.98;;;8.10;99.90;;;;;;2063455;28;20022;-69
2022/03/18 01:33:35;;;;;;;43.33;23.52;;;8.10;99.90;;;;;;2063024;28;20026;-69
2022/03/18 01:34:36;;;;;;;39.22;23.15;;;8.10;99.90;;;;;;2063358;28;20034;-69
2022/03/18 01:35:37;;;;;;;41.38;23.98;;;8.10;99.90;;;;;;2054567;28;20061;-69
2022/03/18 01:36:38;;;;;;;36.65;22.67;;;8.10;99.90;;;;;;2054532;28;20775;-68
2022/03/18 01:37:38;;;;;;;38.95;22.23;;;8.10;99.90;;;;;;2063081;28;20737;-69
2022/03/18 01:38:39;;;;;;;35.92;21.80;;;8.10;99.90;;;;;;2062554;28;20065;-69
2022/03/18 01:39:40;;;;;;;37.60;22.60;;;8.10;99.90;;;;;;2096485;28;20397;-69
2022/03/18 01:40:41;;;;;;;36.22;22.10;;;8.10;99.90;;;;;;2062186;28;20681;-70
2022/03/18 01:41:42;;;;;;;34.13;21.17;;;8.10;99.90;;;;;;2062489;28;20030;-69
2022/03/18 01:42:42;;;;;;;36.80;21.50;;;8.20;99.90;;;;;;2061854;28;20026;-70
2022/03/18 01:43:46;;;;;;;35.50;21.25;;;8.20;99.90;;;;;;2062085;28;20058;-69
2022/03/18 01:44:47;;;;;;;37.70;22.40;;;8.20;99.90;;;;;;2062462;28;20148;-69
2022/03/18 01:45:49;;;;;;;38.58;22.30;;;8.20;99.90;;;;;;2063071;28;20031;-69
2022/03/18 01:46:49;;;;;;;35.58;21.63;;;8.20;99.90;;;;;;2063148;28;20018;-69
2022/03/18 01:47:50;;;;;;;35.50;21.45;;;8.10;99.90;;;;;;2062448;28;20035;-69
2022/03/18 01:48:52;;;;;;;37.30;21.98;;;8.10;99.90;;;;;;2054322;28;20019;-69
2022/03/18 01:49:53;;;;;;;38.72;21.83;;;8.20;99.90;;;;;;2062113;28;20402;-69
2022/03/18 01:50:54;;;;;;;38.20;22.05;;;8.10;99.90;;;;;;2062673;28;20034;-69
2022/03/18 01:51:54;;;;;;;38.50;22.42;;;8.10;99.90;;;;;;2062890;28;20062;-69
2022/03/18 01:52:55;;;;;;;38.47;21.85;;;8.10;99.90;;;;;;2062526;28;20037;-69
2022/03/18 01:55:16;;;;;;;39.30;22.00;;;8.10;99.90;;;;;;2063423;28;20038;-69
2022/03/18 01:56:17;;;;;;;36.10;21.67;;;8.10;99.90;;;;;;2063455;28;20018;-69
2022/03/18 01:57:20;;;;;;;35.92;21.63;;;8.10;99.90;;;;;;2063301;28;20733;-69
2022/03/18 01:58:22;;;;;;;37.60;21.63;;;8.10;99.90;;;;;;2062822;28;20034;-69
2022/03/18 01:59:23;;;;;;;35.88;21.48;;;8.10;99.90;;;;;;2062696;28;20102;-69
2022/03/18 02:00:24;;;;;;;35.22;21.23;;;8.10;99.90;;;;;;2061957;28;20026;-69
2022/03/18 02:01:25;;;;;;;32.85;20.90;;;8.10;99.90;;;;;;2054094;28;20134;-68
2022/03/18 02:02:26;;;;;;;34.03;20.90;;;8.10;99.90;;;;;;2062081;28;20034;-67
2022/03/18 02:03:27;;;;;;;33.40;21.00;;;8.10;99.90;;;;;;2062619;28;20532;-68
2022/03/18 02:04:27;;;;;;;33.95;21.27;;;8.10;99.90;;;;;;2062099;28;20042;-69
2022/03/18 02:05:28;;;;;;;35.88;20.73;;;8.10;99.90;;;;;;2062011;28;20039;-68
2022/03/18 02:06:29;;;;;;;35.08;20.92;;;8.10;99.90;;;;;;2062508;28;20490;-68
2022/03/18 02:07:29;;;;;;;35.40;21.70;;;8.10;99.90;;;;;;2061899;28;20500;-68
2022/03/18 02:08:30;;;;;;;34.33;21.27;;;8.10;99.90;;;;;;2061739;28;20107;-68
2022/03/18 02:09:31;;;;;;;37.17;22.33;;;8.10;99.90;;;;;;2061793;28;20113;-68
2022/03/18 02:10:32;;;;;;;35.50;21.13;;;8.10;99.90;;;;;;2061436;28;20038;-68
2022/03/18 02:11:33;;;;;;;34.25;20.88;;;8.10;99.90;;;;;;2062524;28;20022;-70
2022/03/18 02:12:35;;;;;;;36.03;22.20;;;8.10;99.90;;;;;;2061889;28;20091;-67
2022/03/18 02:13:36;;;;;;;38.60;22.45;;;8.10;99.90;;;;;;2066397;28;20041;-68
2022/03/18 02:14:42;;;;;;;40.28;23.08;;;8.10;99.90;;;;;;2069960;28;20042;-69
2022/03/18 02:15:42;;;;;;;39.28;22.27;;;8.00;99.90;;;;;;2091718;28;20086;-69
2022/03/18 02:16:43;;;;;;;36.38;21.67;;;8.00;99.90;;;;;;2112424;28;20082;-69
2022/03/18 02:17:43;;;;;;;35.05;21.10;;;8.00;99.90;;;;;;2112507;28;20030;-69
2022/03/18 02:18:44;;;;;;;34.40;21.00;;;8.00;99.90;;;;;;2113242;28;20049;-69
2022/03/18 02:19:46;;;;;;;37.08;22.17;;;8.00;99.90;;;;;;2099542;28;20027;-69
2022/03/18 02:20:47;;;;;;;36.80;21.98;;;8.10;99.90;;;;;;2069543;28;20518;-69
2022/03/18 02:21:51;;;;;;;37.17;21.90;;;8.00;99.90;;;;;;2070312;28;20038;-68
2022/03/18 02:22:52;;;;;;;34.58;21.73;;;8.00;99.90;;;;;;2070721;28;20037;-68
2022/03/18 02:23:53;;;;;;;37.00;21.85;;;8.00;99.90;;;;;;2061761;28;20088;-69
2022/03/18 02:24:55;;;;;;;34.55;20.92;;;8.00;99.90;;;;;;2061767;28;20041;-69
2022/03/18 02:25:56;;;;;;;34.20;21.27;;;8.00;99.90;;;;;;2069887;28;20127;-69
2022/03/18 02:26:56;;;;;;;35.47;21.48;;;8.00;99.90;;;;;;2069838;28;20032;-69
2022/03/18 02:27:58;;;;;;;36.63;22.48;;;8.00;99.90;;;;;;2069776;28;20678;-69
2022/03/18 02:28:59;;;;;;;37.00;22.33;;;8.00;99.90;;;;;;2069769;28;20032;-68
2022/03/18 02:30:01;;;;;;;37.10;21.92;;;8.00;99.90;;;;;;2069428;28;20672;-67
2022/03/18 02:31:01;;;;;;;35.60;21.50;;;8.00;99.90;;;;;;2069849;28;20032;-69
2022/03/18 02:32:04;;;;;;;37.58;21.90;;;7.90;99.90;;;;;;2070455;28;20468;-68
2022/03/18 02:33:05;;;;;;;37.92;21.98;;;7.90;99.90;;;;;;2069833;28;20472;-68
2022/03/18 02:34:05;;;;;;;36.38;21.27;;;7.90;99.90;;;;;;2061711;28;20115;-68
2022/03/18 02:35:06;;;;;;;37.15;21.08;;;7.90;99.90;;;;;;2069672;28;20562;-67
2022/03/18 02:36:07;;;;;;;36.28;20.95;;;7.90;99.90;;;;;;2069835;28;20053;-70
2022/03/18 02:37:08;;;;;;;32.97;20.15;;;7.90;99.90;;;;;;2069768;28;20048;-68
2022/03/18 02:38:08;;;;;;;36.78;21.80;;;7.90;99.90;;;;;;2069812;28;20033;-68
2022/03/18 02:39:09;;;;;;;34.53;20.60;;;7.90;99.90;;;;;;2069955;28;20041;-67
2022/03/18 02:40:10;;;;;;;31.83;20.17;;;7.90;99.90;;;;;;2069412;28;20082;-68
2022/03/18 02:41:13;;;;;;;33.47;20.50;;;8.00;99.90;;;;;;2061702;28;20035;-67
2022/03/18 02:42:14;;;;;;;34.10;21.10;;;8.00;99.90;;;;;;2061863;28;20031;-69
2022/03/18 02:43:15;;;;;;;36.58;21.08;;;8.00;99.90;;;;;;2061618;28;20107;-67
2022/03/18 02:44:15;;;;;;;38.70;21.23;;;8.00;99.90;;;;;;2069831;28;20473;-68
2022/03/18 02:45:16;;;;;;;39.92;21.95;;;8.00;99.90;;;;;;2070190;28;20038;-66
2022/03/18 02:46:17;;;;;;;37.72;21.10;;;8.00;99.90;;;;;;2070285;28;20150;-69
2022/03/18 02:47:17;;;;;;;36.53;21.17;;;7.90;99.90;;;;;;2070264;28;20030;-68
2022/03/18 02:48:18;;;;;;;36.35;21.65;;;7.90;99.90;;;;;;2070168;28;20042;-67
2022/03/18 02:49:21;;;;;;;37.13;22.33;;;7.90;99.90;;;;;;2070245;28;20022;-68
2022/03/18 02:50:22;;;;;;;37.75;22.40;;;7.90;99.90;;;;;;2069970;28;20022;-67
2022/03/18 02:51:23;;;;;;;37.75;22.00;;;7.90;99.90;;;;;;2069692;28;20022;-67
2022/03/18 02:52:24;;;;;;;38.03;21.55;;;7.80;99.90;;;;;;2069784;28;20787;-67
2022/03/18 02:53:24;;;;;;;38.58;22.50;;;7.80;99.90;;;;;;2070444;28;20120;-68
2022/03/18 02:54:25;;;;;;;37.25;22.00;;;7.80;99.90;;;;;;2070028;28;20389;-67
2022/03/18 02:55:26;;;;;;;38.92;22.13;;;7.80;99.90;;;;;;2069638;28;20026;-68
2022/03/18 02:56:27;;;;;;;35.88;21.85;;;7.80;99.90;;;;;;2069985;28;20034;-68
2022/03/18 02:57:28;;;;;;;37.97;22.30;;;7.80;99.90;;;;;;2070400;28;20038;-68
2022/03/18 02:58:29;;;;;;;37.78;22.13;;;7.80;99.90;;;;;;2070554;28;20553;-67
2022/03/18 02:59:30;;;;;;;37.28;22.05;;;7.80;99.90;;;;;;2070481;28;20033;-69
2022/03/18 03:00:31;;;;;;;37.20;21.67;;;7.80;99.90;;;;;;2069633;28;20030;-69
2022/03/18 03:01:31;;;;;;;34.83;21.02;;;7.80;99.90;;;;;;2070073;28;20116;-69
2022/03/18 03:02:32;;;;;;;34.35;20.75;;;7.80;99.90;;;;;;2070179;28;20038;-69
2022/03/18 03:03:33;;;;;;;32.90;20.98;;;7.80;99.90;;;;;;2054084;28;20041;-68
2022/03/18 03:04:33;;;;;;;35.60;21.55;;;7.80;99.90;;;;;;2054366;28;20041;-68
2022/03/18 03:08:13;;;;;;;37.80;21.83;;;7.80;99.90;;;;;;2071075;28;20038;-68
2022/03/18 03:09:16;;;;;;;36.10;21.55;;;7.80;99.90;;;;;;2070142;28;20514;-67
2022/03/18 03:10:17;;;;;;;36.65;20.80;;;7.90;99.90;;;;;;2069420;28;20022;-67
2022/03/18 03:11:18;;;;;;;35.03;20.88;;;7.90;99.90;;;;;;2070336;28;20467;-67
2022/03/18 03:12:18;;;;;;;36.58;21.30;;;7.90;99.90;;;;;;2069579;28;20503;-68
2022/03/18 03:13:19;;;;;;;33.58;21.20;;;7.90;99.90;;;;;;2069542;28;20079;-68
2022/03/18 03:14:19;;;;;;;43.88;24.75;;;7.90;99.90;;;;;;2070322;28;20072;-67
2022/03/18 03:15:20;;;;;;;47.00;27.45;;;7.90;99.90;;;;;;2075706;28;20057;-68
2022/03/18 03:16:21;;;;;;;42.25;25.50;;;7.90;99.90;;;;;;2112276;28;20436;-68
2022/03/18 03:17:21;;;;;;;42.80;25.05;;;7.90;99.90;;;;;;2112313;28;20028;-68
2022/03/18 03:18:22;;;;;;;43.47;22.98;;;7.80;99.90;;;;;;2112181;28;20658;-67
2022/03/18 03:19:23;;;;;;;40.10;22.98;;;7.80;99.90;;;;;;2112233;28;20154;-67
2022/03/18 03:20:24;;;;;;;38.42;22.45;;;7.90;99.90;;;;;;2071107;28;20133;-67
2022/03/18 03:21:25;;;;;;;36.70;22.45;;;7.80;99.90;;;;;;2061746;28;20064;-67
2022/03/18 03:22:29;;;;;;;37.33;22.50;;;7.80;99.90;;;;;;2069798;28;20134;-67
2022/03/18 03:23:30;;;;;;;39.65;23.35;;;7.80;99.90;;;;;;2070578;28;20529;-66
2022/03/18 03:24:30;;;;;;;43.72;24.80;;;7.80;99.90;;;;;;2070079;28;20057;-68
2022/03/18 03:25:31;;;;;;;42.28;23.95;;;7.90;99.90;;;;;;2069841;28;20496;-68
2022/03/18 03:26:32;;;;;;;38.25;23.60;;;7.80;99.90;;;;;;2070590;28;20026;-71
2022/03/18 03:27:33;;;;;;;38.65;23.30;;;7.90;99.90;;;;;;2070493;28;20083;-67
2022/03/18 03:28:34;;;;;;;37.88;23.60;;;7.90;99.90;;;;;;2070374;28;20037;-68
2022/03/18 03:29:34;;;;;;;39.90;24.83;;;7.90;99.90;;;;;;2070720;28;20042;-68
2022/03/18 03:30:35;;;;;;;39.92;23.98;;;7.90;99.90;;;;;;2069680;28;20034;-68
2022/03/18 03:31:36;;;;;;;40.03;23.92;;;7.90;99.90;;;;;;2061790;28;20133;-68
2022/03/18 03:32:37;;;;;;;41.30;25.25;;;7.90;99.90;;;;;;2061713;28;20099;-69
2022/03/18 03:33:38;;;;;;;51.00;29.70;;;7.90;99.90;;;;;;2061734;28;20613;-68
2022/03/18 03:34:39;;;;;;;48.10;28.08;;;7.90;99.90;;;;;;2069624;28;20162;-68
2022/03/18 03:35:39;;;;;;;42.20;26.80;;;7.90;99.90;;;;;;2070294;28;20026;-67
2022/03/18 03:36:40;;;;;;;42.97;25.83;;;7.90;99.90;;;;;;2069393;28;20037;-68
2022/03/18 03:37:42;;;;;;;44.47;26.20;;;7.90;99.90;;;;;;2061337;28;20054;-68
2022/03/18 03:38:42;;;;;;;44.38;26.50;;;8.00;99.90;;;;;;2069535;28;20412;-67
2022/03/18 03:39:43;;;;;;;50.22;29.25;;;8.00;99.90;;;;;;2069947;28;20050;-68
2022/03/18 03:40:43;;;;;;;48.17;28.42;;;8.00;99.90;;;;;;2069740;28;20057;-68
2022/03/18 03:41:44;;;;;;;48.38;28.48;;;8.00;99.90;;;;;;2069399;28;20076;-68
2022/03/18 03:42:45;;;;;;;47.28;28.30;;;7.90;99.90;;;;;;2069439;28;20108;-68
2022/03/18 03:43:46;;;;;;;43.95;26.85;;;8.00;99.90;;;;;;2069831;28;20026;-68
2022/03/18 03:44:47;;;;;;;45.60;26.45;;;8.00;99.90;;;;;;2070049;28;20053;-68
2022/03/18 03:45:47;;;;;;;43.63;25.35;;;8.00;99.90;;;;;;2070168;28;20041;-68
2022/03/18 03:46:48;;;;;;;40.85;25.08;;;7.90;99.90;;;;;;2069431;28;20125;-68
2022/03/18 03:47:49;;;;;;;39.83;24.40;;;8.00;99.90;;;;;;2069389;28;20018;-67
2022/03/18 03:48:50;;;;;;;40.80;24.90;;;8.00;99.90;;;;;;2070124;28;20018;-67
2022/03/18 03:49:50;;;;;;;42.40;25.95;;;8.00;99.90;;;;;;2069350;28;20501;-68
2022/03/18 03:50:51;;;;;;;43.10;26.77;;;8.00;99.90;;;;;;2068960;28;20033;-67
2022/03/18 03:51:51;;;;;;;40.05;25.05;;;8.00;99.90;;;;;;2070071;28;20610;-67
2022/03/18 03:52:52;;;;;;;42.90;25.58;;;8.00;99.90;;;;;;2070084;28;20155;-67
2022/03/18 03:53:53;;;;;;;41.88;26.15;;;8.00;99.90;;;;;;2069939;28;20026;-68
2022/03/18 03:54:53;;;;;;;41.63;25.27;;;8.00;99.90;;;;;;2069515;28;20034;-67
2022/03/18 03:55:54;;;;;;;46.72;28.00;;;8.00;99.90;;;;;;2069343;28;20056;-68
2022/03/18 03:56:55;;;;;;;44.13;26.77;;;8.00;99.90;;;;;;2069403;28;20059;-67
2022/03/18 03:57:55;;;;;;;45.78;27.00;;;8.00;99.90;;;;;;2069354;28;20098;-70
2022/03/18 03:58:56;;;;;;;51.75;30.50;;;8.00;99.90;;;;;;2069450;28;20092;-68
2022/03/18 03:59:57;;;;;;;55.67;31.27;;;8.00;99.90;;;;;;2069248;28;20622;-67
2022/03/18 04:00:58;;;;;;;60.35;31.83;;;7.90;99.90;;;;;;2069979;28;20026;-69
2022/03/18 04:01:59;;;;;;;56.22;30.92;;;7.90;99.90;;;;;;2070177;28;20053;-68
2022/03/18 04:02:59;;;;;;;49.08;29.90;;;7.90;99.90;;;;;;2070239;28;20405;-69
2022/03/18 04:04:00;;;;;;;53.40;30.23;;;7.90;99.90;;;;;;2069570;28;20032;-67
2022/03/18 04:05:00;;;;;;;48.83;29.92;;;7.90;99.90;;;;;;2061199;28;20551;-68
2022/03/18 04:06:01;;;;;;;50.65;29.67;;;7.90;99.90;;;;;;2061301;28;20033;-68
2022/03/18 04:07:02;;;;;;;46.38;28.15;;;7.90;99.90;;;;;;2070709;28;20038;-68
2022/03/18 04:08:03;;;;;;;45.47;28.30;;;7.90;99.90;;;;;;2070825;28;20046;-68
2022/03/18 04:09:04;;;;;;;53.10;30.27;;;7.90;99.90;;;;;;2062552;28;20034;-69
2022/03/18 04:10:06;;;;;;;54.60;30.75;;;7.90;99.90;;;;;;2070379;28;20512;-68
2022/03/18 04:11:06;;;;;;;49.78;29.33;;;7.90;99.90;;;;;;2071583;28;20032;-68
2022/03/18 04:12:07;;;;;;;51.35;28.73;;;7.90;99.90;;;;;;2071368;28;20041;-68
2022/03/18 04:13:08;;;;;;;50.92;29.73;;;7.90;99.90;;;;;;2071482;28;20075;-68
2022/03/18 04:14:09;;;;;;;53.70;31.25;;;7.90;99.90;;;;;;2071543;28;20159;-68
2022/03/18 04:15:10;;;;;;;53.80;31.35;;;7.90;99.90;;;;;;2071487;28;20630;-68
2022/03/18 04:16:10;;;;;;;54.78;32.65;;;7.90;99.90;;;;;;2113186;28;20077;-68
2022/03/18 04:17:11;;;;;;;53.30;31.05;;;7.90;99.90;;;;;;2114112;28;20024;-68
2022/03/18 04:18:11;;;;;;;62.10;33.90;;;7.90;99.90;;;;;;2113824;28;20506;-68
2022/03/18 04:19:12;;;;;;;57.92;33.67;;;7.90;99.90;;;;;;2113932;28;20525;-68
2022/03/18 04:20:17;;;;;;;55.28;33.20;;;7.80;99.90;;;;;;2080229;28;21003;-68
2022/03/18 04:21:18;;;;;;;50.92;31.10;;;7.90;99.90;;;;;;2070708;28;20065;-68
2022/03/18 04:22:20;;;;;;;54.47;31.83;;;7.90;99.90;;;;;;2071234;28;20029;-67
2022/03/18 04:23:20;;;;;;;54.40;31.77;;;7.90;99.90;;;;;;2070797;28;20057;-68
2022/03/18 04:24:21;;;;;;;53.85;32.50;;;7.90;99.90;;;;;;2070685;28;20038;-69
2022/03/18 04:25:22;;;;;;;50.95;31.00;;;7.90;99.90;;;;;;2071312;28;20034;-68
2022/03/18 04:26:22;;;;;;;50.05;30.48;;;7.90;99.90;;;;;;2071293;28;20088;-68
2022/03/18 04:27:23;;;;;;;48.45;29.63;;;7.90;99.90;;;;;;2070825;28;20026;-68
2022/03/18 04:28:23;;;;;;;55.05;30.73;;;7.90;99.90;;;;;;2070648;28;20022;-68
2022/03/18 04:29:24;;;;;;;49.47;29.40;;;7.90;99.90;;;;;;2071412;28;20037;-68
2022/03/18 04:30:25;;;;;;;47.42;28.38;;;7.90;99.90;;;;;;2070346;28;20045;-68
2022/03/18 04:31:25;;;;;;;45.72;27.75;;;7.90;99.90;;;;;;2062250;28;20038;-68
2022/03/18 04:32:26;;;;;;;44.92;27.70;;;7.90;99.90;;;;;;2070466;28;20145;-68
2022/03/18 04:33:27;;;;;;;48.85;28.15;;;7.90;99.90;;;;;;2070603;28;20117;-67
2022/03/18 04:34:27;;;;;;;49.55;28.48;;;7.90;99.90;;;;;;2070540;28;20034;-67
2022/03/18 04:35:31;;;;;;;48.75;27.88;;;7.90;99.90;;;;;;2070524;28;20104;-67
2022/03/18 04:36:32;;;;;;;43.95;26.77;;;7.90;99.90;;;;;;2071136;28;20113;-69
2022/03/18 04:37:33;;;;;;;44.85;28.25;;;7.90;99.90;;;;;;2071295;28;20052;-68
2022/03/18 04:38:34;;;;;;;49.03;29.90;;;7.80;99.90;;;;;;2071336;28;20034;-68
2022/03/18 04:39:34;;;;;;;50.90;30.88;;;7.80;99.90;;;;;;2070464;28;20034;-68
2022/03/18 04:40:35;;;;;;;53.72;33.00;;;7.90;99.90;;;;;;2070175;28;20139;-68
2022/03/18 04:41:36;;;;;;;48.70;30.95;;;7.90;99.90;;;;;;2070629;28;20489;-67
2022/03/18 04:42:36;;;;;;;46.70;28.67;;;7.90;99.90;;;;;;2071271;28;20079;-67
2022/03/18 04:43:37;;;;;;;49.80;29.48;;;7.80;99.90;;;;;;2070269;28;20034;-69
2022/03/18 04:44:38;;;;;;;48.92;28.10;;;7.90;99.90;;;;;;2062567;28;20041;-68
2022/03/18 04:45:39;;;;;;;49.67;29.90;;;7.80;99.90;;;;;;2070475;28;20030;-68
2022/03/18 04:46:39;;;;;;;50.78;29.88;;;7.90;99.90;;;;;;2071072;28;20034;-68
2022/03/18 04:47:40;;;;;;;44.30;27.23;;;7.80;99.90;;;;;;2071207;28;20029;-68
2022/03/18 04:48:41;;;;;;;44.22;27.08;;;7.80;99.90;;;;;;2070993;28;20038;-68
2022/03/18 04:49:41;;;;;;;44.08;26.33;;;7.80;99.90;;;;;;2071176;28;20501;-68
2022/03/18 04:50:42;;;;;;;42.80;26.20;;;7.90;99.90;;;;;;2070740;28;20030;-68
2022/03/18 04:51:42;;;;;;;43.75;26.80;;;7.90;99.90;;;;;;2062349;28;20038;-68
2022/03/18 04:52:43;;;;;;;51.90;29.50;;;7.90;99.90;;;;;;2062321;28;20162;-68
2022/03/18 04:53:43;;;;;;;49.20;30.15;;;7.90;99.90;;;;;;2062313;28;20517;-69
2022/03/18 04:54:44;;;;;;;50.08;29.65;;;7.90;99.90;;;;;;2070231;28;20779;-68
2022/03/18 04:55:45;;;;;;;50.38;29.33;;;7.90;99.90;;;;;;2071115;28;20413;-68
2022/03/18 04:58:05;;;;;;;55.85;33.13;;;7.90;99.90;;;;;;2070594;28;20022;-68
2022/03/18 04:59:06;;;;;;;54.15;32.83;;;7.90;99.90;;;;;;2062554;28;20456;-68
2022/03/18 05:00:07;;;;;;;51.00;31.77;;;7.90;99.90;;;;;;2070186;28;20026;-68
2022/03/18 05:01:08;;;;;;;52.67;31.10;;;7.90;99.90;;;;;;2071302;28;20034;-68
2022/03/18 05:02:12;;;;;;;54.00;32.60;;;7.90;99.90;;;;;;2062360;28;20125;-67
2022/03/18 05:03:13;;;;;;;52.70;32.15;;;7.90;99.90;;;;;;2062665;28;20060;-68
2022/03/18 05:04:13;;;;;;;55.90;33.50;;;7.90;99.90;;;;;;2062736;28;20032;-67
2022/03/18 05:05:19;;;;;;;61.97;35.35;;;7.90;99.90;;;;;;2062625;28;20105;-67
2022/03/18 05:06:20;;;;;;;57.88;35.17;;;7.90;99.90;;;;;;2063246;28;20066;-67
2022/03/18 05:07:21;;;;;;;57.38;35.80;;;7.90;99.90;;;;;;2070580;28;20026;-67
2022/03/18 05:08:22;;;;;;;61.00;35.83;;;7.90;99.90;;;;;;2062724;28;20065;-67
2022/03/18 05:09:23;;;;;;;61.20;36.55;;;7.90;99.90;;;;;;2055014;28;20023;-67
2022/03/18 05:10:24;;;;;;;62.42;36.03;;;7.80;99.90;;;;;;2070122;28;20073;-67
2022/03/18 05:11:25;;;;;;;62.55;37.25;;;7.80;99.90;;;;;;2071058;28;20034;-67
2022/03/18 05:12:29;;;;;;;65.90;38.42;;;7.80;99.90;;;;;;2070989;28;20468;-67
2022/03/18 05:13:29;;;;;;;60.97;36.92;;;7.70;99.90;;;;;;2070811;28;20025;-67
2022/03/18 05:14:31;;;;;;;59.90;36.08;;;7.70;99.90;;;;;;2070258;28;20157;-68
2022/03/18 05:15:32;;;;;;;62.90;36.28;;;7.70;99.90;;;;;;2084493;28;20719;-67
2022/03/18 05:16:32;;;;;;;62.80;37.40;;;7.70;99.90;;;;;;2113134;28;20035;-67
2022/03/18 05:17:33;;;;;;;62.33;37.13;;;7.70;99.90;;;;;;2112920;28;20038;-67
2022/03/18 05:18:33;;;;;;;58.85;35.78;;;7.80;99.90;;;;;;2114028;28;20066;-67
2022/03/18 05:19:35;;;;;;;62.70;37.33;;;7.80;99.90;;;;;;2107675;28;20182;-68
2022/03/18 05:20:35;;;;;;;59.40;37.00;;;7.80;99.90;;;;;;2062286;28;20035;-68
2022/03/18 05:21:38;;;;;;;65.93;39.97;;;7.80;99.90;;;;;;2062388;28;20034;-67
2022/03/18 05:27:24;;;;;;;63.47;36.30;;;7.70;99.90;;;;;;2071300;28;20018;-68
2022/03/18 05:28:26;;;;;;;64.38;37.13;;;7.70;99.90;;;;;;2070974;28;20041;-67